createdAt,value
2023-12-01T00:00:38.039Z,99219.29
2023-12-01T00:03:26.092Z,99217.48
2023-12-01T00:05:54.055Z,99214.21
2023-12-01T00:08:22.074Z,99216.22
2023-12-01T00:10:50.058Z,99214.88
2023-12-01T00:13:18.421Z,99220.73
2023-12-01T00:15:46.634Z,99222.08
2023-12-01T00:18:15.075Z,99220.81
2023-12-01T00:20:44.421Z,99215.73
2023-12-01T00:23:12.576Z,99218.03
2023-12-01T00:25:40.573Z,99215.17
2023-12-01T00:28:08.611Z,99222.61
2023-12-01T00:30:36.620Z,99226.38
2023-12-01T00:33:04.685Z,99233.63
2023-12-01T00:35:32.713Z,99238.42
2023-12-01T00:38:00.683Z,99240.89
2023-12-01T00:40:28.600Z,99238.31
2023-12-01T00:42:56.720Z,99235.70
2023-12-01T00:45:24.717Z,99234.90
2023-12-01T00:47:52.849Z,99238.04
2023-12-01T00:50:20.752Z,99240.21
2023-12-01T00:52:48.817Z,99239.23
2023-12-01T00:55:16.843Z,99241.30
2023-12-01T00:57:44.962Z,99237.68
2023-12-01T01:00:13.209Z,99241.05
2023-12-01T01:02:42.193Z,99239.71
2023-12-01T01:05:10.269Z,99239.73
2023-12-01T01:07:38.323Z,99242.80
2023-12-01T01:10:07.280Z,99229.61
2023-12-01T01:12:35.325Z,99222.13
2023-12-01T01:15:04.857Z,99217.73
2023-12-01T01:17:33.168Z,99220.88
2023-12-01T01:20:01.902Z,99219.48
2023-12-01T01:22:29.771Z,99221.61
2023-12-01T01:24:58.235Z,99225.45
2023-12-01T01:27:26.155Z,99212.78
2023-12-01T01:29:53.950Z,99208.95
2023-12-01T01:32:21.895Z,99207.10
2023-12-01T01:34:49.966Z,99206.73
2023-12-01T01:37:17.924Z,99209.37
2023-12-01T01:39:45.959Z,99209.30
2023-12-01T01:42:14.017Z,99213.38
2023-12-01T01:44:41.945Z,99215.09
2023-12-01T01:47:10.034Z,99213.17
2023-12-01T01:49:38.507Z,99212.10
2023-12-01T01:52:07.047Z,99207.55
2023-12-01T01:54:35.046Z,99204.80
2023-12-01T01:57:04.028Z,99209.13
2023-12-01T01:59:31.972Z,99210.27
2023-12-01T02:01:59.801Z,99210.26
2023-12-01T02:04:28.049Z,99208.13
2023-12-01T02:06:56.313Z,99212.45
2023-12-01T02:09:24.274Z,99214.19
2023-12-01T02:11:52.139Z,99215.83
2023-12-01T02:14:20.032Z,99217.96
2023-12-01T02:16:48.108Z,99222.40
2023-12-01T02:19:16.120Z,99224.95
2023-12-01T02:21:46.121Z,99219.69
2023-12-01T02:24:14.602Z,99215.05
2023-12-01T02:26:42.386Z,99215.59
2023-12-01T02:29:10.238Z,99215.35
2023-12-01T02:31:38.182Z,99209.29
2023-12-01T02:34:06.029Z,99208.84
2023-12-01T02:36:33.937Z,99209.80
2023-12-01T02:39:02.460Z,99207.26
2023-12-01T02:41:30.804Z,99212.11
2023-12-01T02:43:58.602Z,99212.95
2023-12-01T02:46:26.455Z,99212.34
2023-12-01T02:48:54.413Z,99214.10
2023-12-01T02:51:23.799Z,99213.09
2023-12-01T02:53:51.660Z,99211.30
2023-12-01T02:56:19.561Z,99216.60
2023-12-01T02:58:47.319Z,99222.96
2023-12-01T03:01:16.409Z,99236.85
2023-12-01T03:03:44.656Z,99239.84
2023-12-01T03:06:12.475Z,99238.05
2023-12-01T03:08:40.369Z,99241.60
2023-12-01T03:11:09.317Z,99244.17
2023-12-01T03:13:37.176Z,99251.69
2023-12-01T03:16:05.490Z,99258.98
2023-12-01T03:18:33.916Z,99257.28
2023-12-01T03:21:01.901Z,99257.04
2023-12-01T03:23:30.149Z,99261.58
2023-12-01T03:25:57.952Z,99262.94
2023-12-01T03:28:25.839Z,99261.04
2023-12-01T03:30:53.800Z,99265.66
2023-12-01T03:33:21.669Z,99263.47
2023-12-01T03:35:49.607Z,99268.70
2023-12-01T03:38:17.481Z,99267.91
2023-12-01T03:40:45.886Z,99270.63
2023-12-01T03:43:13.751Z,99268.86
2023-12-01T03:45:41.805Z,99270.76
2023-12-01T03:48:09.673Z,99267.81
2023-12-01T03:50:37.765Z,99270.40
2023-12-01T03:53:05.527Z,99270.28
2023-12-01T03:55:33.356Z,99270.54
2023-12-01T03:58:03.688Z,99264.42
2023-12-01T04:00:34.310Z,99267.45
2023-12-01T04:03:02.530Z,99265.98
2023-12-01T04:05:32.190Z,99261.30
2023-12-01T04:08:00.222Z,99259.70
2023-12-01T04:10:29.274Z,99257.91
2023-12-01T04:12:57.736Z,99255.95
2023-12-01T04:15:28.982Z,99254.86
2023-12-01T04:17:56.942Z,99251.77
2023-12-01T04:20:28.937Z,99249.64
2023-12-01T04:23:00.317Z,99249.48
2023-12-01T04:25:29.080Z,99240.84
2023-12-01T04:27:58.720Z,99238.39
2023-12-01T04:30:26.845Z,99232.35
2023-12-01T04:32:57.496Z,99232.41
2023-12-01T04:35:36.794Z,99229.43
2023-12-01T04:38:05.325Z,99230.10
2023-12-01T04:40:33.963Z,99226.08
2023-12-01T04:43:02.831Z,99234.48
2023-12-01T04:45:33.760Z,99245.55
2023-12-01T04:48:01.900Z,99251.60
2023-12-01T04:50:31.652Z,99255.56
2023-12-01T04:53:02.515Z,99255.80
2023-12-01T04:55:31.455Z,99261.89
2023-12-01T04:58:02.159Z,99265.63
2023-12-01T05:00:30.174Z,99266.10
2023-12-01T05:03:03.643Z,99270.11
2023-12-01T05:05:34.479Z,99273.84
2023-12-01T05:08:06.314Z,99268.19
2023-12-01T05:10:35.866Z,99262.67
2023-12-01T05:13:06.099Z,99263.44
2023-12-01T05:15:36.397Z,99258.92
2023-12-01T05:18:13.722Z,99255.21
2023-12-01T05:20:42.136Z,99259.97
2023-12-01T05:23:11.082Z,99263.40
2023-12-01T05:25:42.963Z,99264.83
2023-12-01T05:28:12.620Z,99258.88
2023-12-01T05:30:42.574Z,99258.85
2023-12-01T05:33:10.902Z,99260.39
2023-12-01T05:35:40.237Z,99265.59
2023-12-01T05:38:11.098Z,99270.45
2023-12-01T05:40:39.669Z,99275.64
2023-12-01T05:43:09.086Z,99279.12
2023-12-01T05:45:38.324Z,99280.29
2023-12-01T05:48:10.531Z,99287.64
2023-12-01T05:50:40.120Z,99297.16
2023-12-01T05:53:08.300Z,99305.36
2023-12-01T05:55:39.598Z,99310.00
2023-12-01T05:58:12.434Z,99314.77
2023-12-01T06:00:41.841Z,99324.83
2023-12-01T06:03:11.878Z,99329.34
2023-12-01T06:05:40.841Z,99337.06
2023-12-01T06:08:12.225Z,99339.46
2023-12-01T06:10:41.340Z,99343.23
2023-12-01T06:13:09.560Z,99350.04
2023-12-01T06:15:37.546Z,99359.61
2023-12-01T06:18:05.468Z,99361.40
2023-12-01T06:20:35.582Z,99367.69
2023-12-01T06:23:08.762Z,99374.35
2023-12-01T06:25:39.588Z,99378.87
2023-12-01T06:28:07.759Z,99381.11
2023-12-01T06:30:37.432Z,99383.06
2023-12-01T06:33:10.581Z,99385.05
2023-12-01T06:35:39.088Z,99377.01
2023-12-01T06:38:08.402Z,99370.28
2023-12-01T06:40:36.284Z,99360.81
2023-12-01T06:43:11.871Z,99361.93
2023-12-01T06:45:43.655Z,99357.88
2023-12-01T06:48:12.843Z,99359.19
2023-12-01T06:50:40.841Z,99361.98
2023-12-01T06:53:08.994Z,99365.39
2023-12-01T06:55:37.763Z,99369.10
2023-12-01T06:58:05.932Z,99364.14
2023-12-01T07:00:38.383Z,99366.59
2023-12-01T07:03:12.190Z,99358.83
2023-12-01T07:05:42.495Z,99354.40
2023-12-01T07:08:14.386Z,99362.90
2023-12-01T07:10:43.393Z,99363.20
2023-12-01T07:13:11.422Z,99361.12
2023-12-01T07:15:39.491Z,99360.77
2023-12-01T07:18:08.262Z,99356.05
2023-12-01T07:20:36.370Z,99354.35
2023-12-01T07:23:06.144Z,99352.19
2023-12-01T07:25:35.782Z,99358.15
2023-12-01T07:28:05.768Z,99359.39
2023-12-01T07:30:35.102Z,99364.83
2023-12-01T07:33:05.852Z,99377.80
2023-12-01T07:35:33.970Z,99390.88
2023-12-01T07:38:02.066Z,99392.21
2023-12-01T07:40:33.253Z,99388.92
2023-12-01T07:43:01.153Z,99385.03
2023-12-01T07:45:29.004Z,99388.36
2023-12-01T07:47:57.601Z,99390.36
2023-12-01T07:50:28.194Z,99396.16
2023-12-01T07:52:57.380Z,99393.15
2023-12-01T07:55:26.088Z,99393.25
2023-12-01T07:57:54.018Z,99388.70
2023-12-01T08:00:22.994Z,99383.83
2023-12-01T08:02:54.696Z,99387.09
2023-12-01T08:05:25.536Z,99394.81
2023-12-01T08:07:57.108Z,99397.56
2023-12-01T08:10:30.052Z,99403.00
2023-12-01T08:13:00.370Z,99397.26
2023-12-01T08:15:30.024Z,99397.85
2023-12-01T08:18:00.381Z,99398.06
2023-12-01T08:20:32.729Z,99393.40
2023-12-01T08:23:01.888Z,99396.39
2023-12-01T08:25:32.018Z,99392.54
2023-12-01T08:28:00.504Z,99386.14
2023-12-01T08:30:29.563Z,99392.07
2023-12-01T08:32:58.241Z,99392.15
2023-12-01T08:35:26.667Z,99411.91
2023-12-01T08:37:55.476Z,99410.59
2023-12-01T08:40:24.466Z,99407.25
2023-12-01T08:42:55.077Z,99417.77
2023-12-01T08:45:23.579Z,99423.70
2023-12-01T08:47:53.584Z,99428.93
2023-12-01T08:50:22.251Z,99432.92
2023-12-01T08:52:50.161Z,99439.33
2023-12-01T08:55:18.147Z,99439.90
2023-12-01T08:57:45.994Z,99438.73
2023-12-01T09:00:20.238Z,99437.95
2023-12-01T09:02:50.528Z,99430.10
2023-12-01T09:05:19.163Z,99435.08
2023-12-01T09:07:50.261Z,99446.86
2023-12-01T09:10:21.621Z,99459.02
2023-12-01T09:12:53.821Z,99458.06
2023-12-01T09:15:22.325Z,99457.48
2023-12-01T09:17:51.561Z,99466.55
2023-12-01T09:20:21.495Z,99467.80
2023-12-01T09:22:49.615Z,99466.23
2023-12-01T09:25:17.571Z,99453.84
2023-12-01T09:27:45.386Z,99457.70
2023-12-01T09:30:18.346Z,99459.44
2023-12-01T09:32:47.539Z,99457.02
2023-12-01T09:35:17.120Z,99449.46
2023-12-01T09:38:05.590Z,99446.34
2023-12-01T09:40:40.918Z,99447.36
2023-12-01T09:43:09.034Z,99451.45
2023-12-01T09:45:36.998Z,99451.86
2023-12-01T09:48:07.776Z,99445.25
2023-12-01T09:50:36.177Z,99436.36
2023-12-01T09:53:04.166Z,99439.73
2023-12-01T09:55:33.224Z,99442.10
2023-12-01T09:58:01.134Z,99440.23
2023-12-01T10:00:29.199Z,99440.20
2023-12-01T10:02:57.315Z,99448.10
2023-12-01T10:05:27.188Z,99453.60
2023-12-01T10:07:57.177Z,99455.50
2023-12-01T10:10:27.845Z,99450.45
2023-12-01T10:12:57.492Z,99453.64
2023-12-01T10:15:27.270Z,99451.11
2023-12-01T10:18:08.143Z,99454.05
2023-12-01T10:20:36.866Z,99458.01
2023-12-01T10:23:20.959Z,99463.30
2023-12-01T10:25:53.489Z,99466.48
2023-12-01T10:28:22.375Z,99464.95
2023-12-01T10:30:58.881Z,99469.88
2023-12-01T10:33:30.109Z,99468.91
2023-12-01T10:36:02.780Z,99465.19
2023-12-01T10:38:31.973Z,99461.56
2023-12-01T10:41:01.297Z,99458.18
2023-12-01T10:43:29.334Z,99456.21
2023-12-01T10:46:04.004Z,99448.20
2023-12-01T10:48:34.078Z,99445.92
2023-12-01T10:51:07.286Z,99443.48
2023-12-01T10:53:36.445Z,99447.05
2023-12-01T10:56:13.029Z,99451.53
2023-12-01T10:58:42.040Z,99453.67
2023-12-01T11:01:10.210Z,99442.59
2023-12-01T11:03:42.429Z,99442.59
2023-12-01T11:06:30.755Z,99438.08
2023-12-01T11:09:24.446Z,99444.42
2023-12-01T11:12:24.622Z,99448.42
2023-12-01T11:14:54.359Z,99442.01
2023-12-01T11:17:22.829Z,99438.23
2023-12-01T11:19:50.769Z,99437.91
2023-12-01T11:22:34.113Z,99442.19
2023-12-01T11:25:02.406Z,99445.70
2023-12-01T11:27:32.973Z,99455.77
2023-12-01T11:30:09.163Z,99457.64
2023-12-01T11:32:42.698Z,99459.44
2023-12-01T11:35:12.990Z,99462.36
2023-12-01T11:38:01.208Z,99456.65
2023-12-01T11:40:39.188Z,99463.59
2023-12-01T11:43:19.189Z,99473.31
2023-12-01T11:45:50.509Z,99471.90
2023-12-01T11:48:19.333Z,99466.81
2023-12-01T11:50:47.764Z,99459.38
2023-12-01T11:53:15.992Z,99457.07
2023-12-01T11:55:43.961Z,99466.56
2023-12-01T11:58:19.401Z,99475.29
2023-12-01T12:00:47.755Z,99475.59
2023-12-01T12:03:22.938Z,99470.92
2023-12-01T12:05:53.638Z,99471.88
2023-12-01T12:08:24.044Z,99470.14
2023-12-01T12:10:52.532Z,99469.70
2023-12-01T12:13:20.604Z,99473.43
2023-12-01T12:15:49.440Z,99469.02
2023-12-01T12:18:17.685Z,99465.89
2023-12-01T12:20:48.356Z,99458.05
2023-12-01T12:23:16.477Z,99456.48
2023-12-01T12:25:46.327Z,99458.63
2023-12-01T12:28:14.221Z,99461.94
2023-12-01T12:30:42.524Z,99460.94
2023-12-01T12:33:11.122Z,99460.57
2023-12-01T12:35:39.378Z,99461.88
2023-12-01T12:38:08.328Z,99458.66
2023-12-01T12:40:36.287Z,99455.80
2023-12-01T12:43:06.814Z,99461.68
2023-12-01T12:45:34.875Z,99456.77
2023-12-01T12:48:10.831Z,99454.91
2023-12-01T12:50:43.216Z,99456.38
2023-12-01T12:53:11.333Z,99466.80
2023-12-01T12:55:39.825Z,99471.61
2023-12-01T12:58:08.294Z,99467.73
2023-12-01T13:00:36.197Z,99471.38
2023-12-01T13:03:05.000Z,99471.64
2023-12-01T13:05:33.279Z,99470.94
2023-12-01T13:08:01.101Z,99468.02
2023-12-01T13:10:28.931Z,99465.53
2023-12-01T13:12:56.851Z,99459.95
2023-12-01T13:15:25.032Z,99466.64
2023-12-01T13:17:53.186Z,99471.81
2023-12-01T13:20:21.238Z,99470.27
2023-12-01T13:22:49.192Z,99467.91
2023-12-01T13:25:17.239Z,99472.77
2023-12-01T13:27:45.444Z,99467.14
2023-12-01T13:30:14.019Z,99464.08
2023-12-01T13:32:42.013Z,99464.09
2023-12-01T13:35:10.094Z,99466.73
2023-12-01T13:37:39.714Z,99466.39
2023-12-01T13:40:09.709Z,99467.11
2023-12-01T13:42:38.262Z,99463.54
2023-12-01T13:45:10.275Z,99462.46
2023-12-01T13:47:43.364Z,99470.13
2023-12-01T13:50:11.954Z,99468.50
2023-12-01T13:52:40.408Z,99455.65
2023-12-01T13:55:08.789Z,99454.52
2023-12-01T13:57:39.469Z,99456.55
2023-12-01T14:00:14.332Z,99463.04
2023-12-01T14:02:47.332Z,99470.31
2023-12-01T14:05:19.205Z,99485.13
2023-12-01T14:10:16.558Z,99477.81
2023-12-01T14:12:44.608Z,99478.99
2023-12-01T14:15:12.856Z,99480.43
2023-12-01T14:17:41.300Z,99480.79
2023-12-01T14:20:10.454Z,99474.96
2023-12-01T14:22:39.773Z,99470.14
2023-12-01T14:25:09.390Z,99472.44
2023-12-01T14:27:37.222Z,99475.06
2023-12-01T14:30:05.735Z,99472.91
2023-12-01T14:32:35.652Z,99477.19
2023-12-01T14:35:04.544Z,99481.27
2023-12-01T14:37:32.399Z,99484.86
2023-12-01T14:40:02.109Z,99478.26
2023-12-01T14:42:31.624Z,99472.42
2023-12-01T14:44:59.813Z,99472.92
2023-12-01T14:47:29.516Z,99474.73
2023-12-01T14:49:57.489Z,99481.09
2023-12-01T14:52:25.405Z,99485.09
2023-12-01T14:54:53.677Z,99485.77
2023-12-01T14:57:21.776Z,99492.23
2023-12-01T14:59:50.263Z,99498.85
2023-12-01T15:02:18.221Z,99493.95
2023-12-01T15:04:46.096Z,99505.17
2023-12-01T15:07:14.140Z,99506.84
2023-12-01T15:09:42.219Z,99499.19
2023-12-01T15:12:10.319Z,99501.96
2023-12-01T15:14:38.349Z,99508.02
2023-12-01T15:17:06.332Z,99515.25
2023-12-01T15:19:34.281Z,99518.90
2023-12-01T15:22:02.544Z,99518.40
2023-12-01T15:24:30.609Z,99516.11
2023-12-01T15:26:58.505Z,99510.17
2023-12-01T15:29:26.496Z,99504.90
2023-12-01T15:31:54.368Z,99504.14
2023-12-01T15:34:22.326Z,99500.01
2023-12-01T15:36:50.264Z,99501.13
2023-12-01T15:39:18.331Z,99500.23
2023-12-01T15:41:46.288Z,99501.80
2023-12-01T15:44:14.246Z,99504.94
2023-12-01T15:46:42.040Z,99505.10
2023-12-01T15:49:10.087Z,99521.23
2023-12-01T15:51:37.967Z,99526.23
2023-12-01T15:54:06.118Z,99523.98
2023-12-01T15:56:33.977Z,99519.39
2023-12-01T15:59:02.359Z,99517.02
2023-12-01T16:01:31.317Z,99525.70
2023-12-01T16:03:59.876Z,99530.44
2023-12-01T16:06:27.817Z,99528.53
2023-12-01T16:08:55.663Z,99526.09
2023-12-01T16:11:23.559Z,99531.05
2023-12-01T16:13:51.461Z,99535.11
2023-12-01T16:16:19.387Z,99531.57
2023-12-01T16:18:47.439Z,99532.19
2023-12-01T16:21:22.890Z,99536.90
2023-12-01T16:23:51.037Z,99521.89
2023-12-01T16:26:18.868Z,99514.92
2023-12-01T16:28:46.908Z,99516.52
2023-12-01T16:31:15.008Z,99519.14
2023-12-01T16:33:42.963Z,99509.59
2023-12-01T16:36:30.553Z,99504.72
2023-12-01T16:38:59.997Z,99501.40
2023-12-01T16:41:28.076Z,99503.23
2023-12-01T16:43:56.126Z,99506.27
2023-12-01T16:46:24.068Z,99503.63
2023-12-01T16:48:51.938Z,99516.39
2023-12-01T16:51:19.823Z,99525.04
2023-12-01T16:53:47.774Z,99529.56
2023-12-01T16:56:17.744Z,99537.77
2023-12-01T16:58:47.008Z,99536.00
2023-12-01T17:01:14.828Z,99541.28
2023-12-01T17:03:43.357Z,99550.69
2023-12-01T17:06:11.994Z,99547.31
2023-12-01T17:08:39.887Z,99542.73
2023-12-01T17:11:08.717Z,99544.01
2023-12-01T17:13:36.656Z,99537.48
2023-12-01T17:16:06.166Z,99537.37
2023-12-01T17:18:34.511Z,99538.52
2023-12-01T17:21:02.607Z,99547.50
2023-12-01T17:23:30.931Z,99555.06
2023-12-01T17:25:58.843Z,99554.32
2023-12-01T17:28:26.619Z,99556.11
2023-12-01T17:30:54.472Z,99546.21
2023-12-01T17:33:22.347Z,99532.27
2023-12-01T17:35:50.331Z,99537.09
2023-12-01T17:38:18.177Z,99537.05
2023-12-01T17:40:46.070Z,99534.86
2023-12-01T17:43:14.129Z,99543.53
2023-12-01T17:45:42.683Z,99548.19
2023-12-01T17:48:11.048Z,99539.42
2023-12-01T17:50:39.203Z,99545.45
2023-12-01T17:53:07.322Z,99560.30
2023-12-01T17:55:35.180Z,99565.17
2023-12-01T17:58:04.376Z,99546.20
2023-12-01T18:00:33.127Z,99545.96
2023-12-01T18:03:01.154Z,99545.61
2023-12-01T18:05:29.195Z,99541.23
2023-12-01T18:07:57.105Z,99537.79
2023-12-01T18:10:24.968Z,99533.71
2023-12-01T18:12:53.101Z,99540.91
2023-12-01T18:15:21.065Z,99553.05
2023-12-01T18:17:49.248Z,99562.98
2023-12-01T18:20:17.911Z,99548.91
2023-12-01T18:22:48.126Z,99546.36
2023-12-01T18:25:16.001Z,99545.54
2023-12-01T18:27:43.820Z,99554.81
2023-12-01T18:30:12.862Z,99571.36
2023-12-01T18:32:40.952Z,99567.30
2023-12-01T18:35:09.144Z,99577.88
2023-12-01T18:37:37.032Z,99574.38
2023-12-01T18:40:05.862Z,99579.57
2023-12-01T18:42:34.162Z,99572.29
2023-12-01T18:45:02.080Z,99567.77
2023-12-01T18:47:29.938Z,99564.90
2023-12-01T18:49:58.156Z,99558.70
2023-12-01T18:52:26.332Z,99558.16
2023-12-01T18:54:54.304Z,99580.33
2023-12-01T18:57:23.057Z,99582.02
2023-12-01T18:59:51.419Z,99583.52
2023-12-01T19:02:19.376Z,99578.58
2023-12-01T19:04:47.369Z,99572.30
2023-12-01T19:07:15.356Z,99562.94
2023-12-01T19:09:43.215Z,99551.55
2023-12-01T19:12:11.212Z,99552.30
2023-12-01T19:14:39.104Z,99556.88
2023-12-01T19:17:07.130Z,99561.75
2023-12-01T19:19:35.972Z,99572.56
2023-12-01T19:22:05.050Z,99567.73
2023-12-01T19:24:33.023Z,99564.70
2023-12-01T19:27:01.426Z,99569.85
2023-12-01T19:29:29.434Z,99572.63
2023-12-01T19:31:57.338Z,99575.70
2023-12-01T19:34:25.440Z,99578.95
2023-12-01T19:36:55.372Z,99577.89
2023-12-01T19:39:25.190Z,99567.73
2023-12-01T19:41:53.306Z,99559.99
2023-12-01T19:44:21.137Z,99561.70
2023-12-01T19:46:48.984Z,99561.86
2023-12-01T19:49:16.852Z,99574.68
2023-12-01T19:51:44.673Z,99579.32
2023-12-01T19:54:12.662Z,99584.05
2023-12-01T19:56:40.451Z,99587.88
2023-12-01T19:59:08.370Z,99583.50
2023-12-01T20:01:36.220Z,99578.54
2023-12-01T20:04:05.966Z,99572.62
2023-12-01T20:06:33.936Z,99571.63
2023-12-01T20:09:01.975Z,99569.27
2023-12-01T20:11:30.021Z,99567.23
2023-12-01T20:13:58.495Z,99567.84
2023-12-01T20:16:29.853Z,99575.02
2023-12-01T20:18:57.910Z,99583.65
2023-12-01T20:21:26.034Z,99584.80
2023-12-01T20:23:54.386Z,99575.94
2023-12-01T20:26:22.410Z,99568.29
2023-12-01T20:28:50.532Z,99567.19
2023-12-01T20:31:18.311Z,99561.33
2023-12-01T20:33:46.189Z,99569.38
2023-12-01T20:36:14.336Z,99584.22
2023-12-01T20:38:42.308Z,99581.38
2023-12-01T20:41:10.102Z,99583.40
2023-12-01T20:43:38.429Z,99586.96
2023-12-01T20:46:14.054Z,99585.06
2023-12-01T20:48:42.332Z,99585.02
2023-12-01T20:51:19.212Z,99576.13
2023-12-01T20:53:47.052Z,99584.13
2023-12-01T20:56:15.076Z,99591.93
2023-12-01T20:58:43.014Z,99589.62
2023-12-01T21:01:11.232Z,99601.41
2023-12-01T21:03:39.118Z,99595.88
2023-12-01T21:06:07.300Z,99581.48
2023-12-01T21:08:35.157Z,99590.34
2023-12-01T21:11:03.117Z,99587.89
2023-12-01T21:13:31.275Z,99584.80
2023-12-01T21:15:59.285Z,99602.95
2023-12-01T21:18:27.235Z,99600.43
2023-12-01T21:20:55.354Z,99584.19
2023-12-01T21:23:24.168Z,99581.09
2023-12-01T21:25:52.400Z,99584.73
2023-12-01T21:28:20.471Z,99574.40
2023-12-01T21:30:48.382Z,99583.20
2023-12-01T21:33:16.436Z,99583.36
2023-12-01T21:35:44.481Z,99575.30
2023-12-01T21:38:12.394Z,99578.02
2023-12-01T21:40:44.667Z,99577.99
2023-12-01T21:43:12.721Z,99576.45
2023-12-01T21:45:40.591Z,99579.60
2023-12-01T21:48:10.029Z,99573.07
2023-12-01T21:50:38.087Z,99578.93
2023-12-01T21:53:06.421Z,99579.71
2023-12-01T21:55:34.261Z,99578.20
2023-12-01T21:58:03.326Z,99573.48
2023-12-01T22:00:32.223Z,99576.66
2023-12-01T22:03:00.509Z,99577.85
2023-12-01T22:05:28.573Z,99560.44
2023-12-01T22:07:56.482Z,99557.11
2023-12-01T22:10:24.390Z,99545.54
2023-12-01T22:12:52.191Z,99543.66
2023-12-01T22:15:20.084Z,99554.40
2023-12-01T22:17:48.079Z,99545.33
2023-12-01T22:20:16.147Z,99542.81
2023-12-01T22:22:44.185Z,99544.84
2023-12-01T22:25:12.072Z,99548.89
2023-12-01T22:27:40.217Z,99556.45
2023-12-01T22:30:08.790Z,99565.59
2023-12-01T22:32:37.831Z,99578.76
2023-12-01T22:35:06.173Z,99582.70
2023-12-01T22:37:34.014Z,99585.19
2023-12-01T22:40:01.966Z,99583.15
2023-12-01T22:42:29.850Z,99589.11
2023-12-01T22:44:57.745Z,99595.35
2023-12-01T22:47:25.577Z,99596.48
2023-12-01T22:49:53.952Z,99589.93
2023-12-01T22:52:21.936Z,99583.59
2023-12-01T22:54:50.139Z,99579.89
2023-12-01T22:57:18.339Z,99586.23
2023-12-01T22:59:46.451Z,99588.04
2023-12-01T23:02:14.422Z,99582.36
2023-12-01T23:04:42.457Z,99577.21
2023-12-01T23:07:10.354Z,99569.95
2023-12-01T23:09:38.256Z,99565.44
2023-12-01T23:12:06.888Z,99563.05
2023-12-01T23:14:34.801Z,99562.16
2023-12-01T23:17:02.705Z,99569.85
2023-12-01T23:19:30.690Z,99570.17
2023-12-01T23:21:58.772Z,99566.89
2023-12-01T23:24:26.730Z,99578.02
2023-12-01T23:26:54.548Z,99578.20
2023-12-01T23:29:22.335Z,99581.34
2023-12-01T23:31:50.631Z,99574.52
2023-12-01T23:34:18.597Z,99574.77
2023-12-01T23:36:46.616Z,99572.31
2023-12-01T23:39:14.427Z,99573.10
2023-12-01T23:41:42.338Z,99578.61
2023-12-01T23:44:10.127Z,99576.55
2023-12-01T23:46:37.926Z,99575.86
2023-12-01T23:49:05.765Z,99579.20
2023-12-01T23:51:33.833Z,99585.42
2023-12-01T23:54:01.709Z,99590.71
2023-12-01T23:56:29.621Z,99594.42
2023-12-01T23:58:57.517Z,99597.45
